Time,TemperatureF,DewpointF,PressureIn,WindDirection,WindDirectionDegrees,WindSpeedMPH,WindSpeedGustMPH,Humidity,HourlyPrecipIn,Conditions,Clouds,dailyrainin,SoftwareType,DateUTC
2013-08-04 00:09:00,72.8,70.0,29.92,East,83,0.0,0.0,91,0.00,,,0.00,weatherlink.com 1.10,2013-08-04 04:09:00,
2013-08-04 00:24:00,72.7,70.0,29.92,East,83,0.0,0.0,91,0.00,,,0.00,weatherlink.com 1.10,2013-08-04 04:24:00,
2013-08-04 00:39:00,72.5,70.0,29.92,East,83,0.0,0.0,91,0.00,,,0.00,weatherlink.com 1.10,2013-08-04 04:39:00,
2013-08-04 00:53:00,72.3,70.0,29.92,East,83,0.0,0.0,92,0.00,,,0.00,weatherlink.com 1.10,2013-08-04 04:53:00,
2013-08-04 01:09:00,72.1,70.0,29.92,East,83,0.0,0.0,92,0.00,,,0.00,weatherlink.com 1.10,2013-08-04 05:09:00,
2013-08-04 01:24:00,71.8,69.0,29.92,East,83,0.0,0.0,92,0.00,,,0.00,weatherlink.com 1.10,2013-08-04 05:24:00,
2013-08-04 01:39:00,71.6,70.0,29.92,East,83,0.0,0.0,93,0.00,,,0.00,weatherlink.com 1.10,2013-08-04 05:39:00,
2013-08-04 01:54:00,71.3,69.0,29.91,East,83,0.0,0.0,93,0.00,,,0.00,weatherlink.com 1.10,2013-08-04 05:54:00,
2013-08-04 02:09:00,71.1,69.0,29.91,East,83,0.0,0.0,94,0.00,,,0.00,weatherlink.com 1.10,2013-08-04 06:09:00,
2013-08-04 02:24:00,70.9,69.0,29.90,East,83,0.0,0.0,94,0.00,,,0.00,weatherlink.com 1.10,2013-08-04 06:24:00,
2013-08-04 02:39:00,70.8,69.0,29.90,East,83,0.0,0.0,94,0.00,,,0.00,weatherlink.com 1.10,2013-08-04 06:39:00,
2013-08-04 02:54:00,70.8,69.0,29.89,East,83,0.0,0.0,95,0.00,,,0.00,weatherlink.com 1.10,2013-08-04 06:54:00,
2013-08-04 03:09:00,70.4,69.0,29.89,East,83,0.0,0.0,95,0.00,,,0.00,weatherlink.com 1.10,2013-08-04 07:09:00,
2013-08-04 03:24:00,70.3,69.0,29.89,East,83,0.0,0.0,95,0.00,,,0.00,weatherlink.com 1.10,2013-08-04 07:24:00,
2013-08-04 03:39:00,70.1,69.0,29.89,East,83,0.0,0.0,95,0.00,,,0.00,weatherlink.com 1.10,2013-08-04 07:39:00,
2013-08-04 03:54:00,69.9,69.0,29.89,East,83,0.0,0.0,95,0.00,,,0.00,weatherlink.com 1.10,2013-08-04 07:54:00,
2013-08-04 04:09:00,69.8,69.0,29.89,East,83,0.0,0.0,96,0.00,,,0.00,weatherlink.com 1.10,2013-08-04 08:09:00,
2013-08-04 04:24:00,69.6,69.0,29.89,East,83,0.0,0.0,96,0.00,,,0.00,weatherlink.com 1.10,2013-08-04 08:24:00,
2013-08-04 04:39:00,69.4,68.0,29.89,East,83,0.0,0.0,96,0.00,,,0.00,weatherlink.com 1.10,2013-08-04 08:39:00,
2013-08-04 04:54:00,69.3,68.0,29.89,East,83,0.0,0.0,96,0.00,,,0.00,weatherlink.com 1.10,2013-08-04 08:54:00,
2013-08-04 05:09:00,69.1,68.0,29.89,East,83,0.0,0.0,96,0.00,,,0.00,weatherlink.com 1.10,2013-08-04 09:09:00,
2013-08-04 05:24:00,68.9,68.0,29.89,East,83,0.0,0.0,96,0.00,,,0.00,weatherlink.com 1.10,2013-08-04 09:24:00,
2013-08-04 05:39:00,68.9,68.0,29.90,East,83,0.0,0.0,96,0.00,,,0.00,weatherlink.com 1.10,2013-08-04 09:39:00,
2013-08-04 05:54:00,68.9,68.0,29.90,East,83,0.0,0.0,97,0.00,,,0.00,weatherlink.com 1.10,2013-08-04 09:54:00,
2013-08-04 06:09:00,68.9,68.0,29.91,East,83,0.0,0.0,97,0.00,,,0.00,weatherlink.com 1.10,2013-08-04 10:09:00,
2013-08-04 06:24:00,69.1,68.0,29.91,East,83,0.0,0.0,97,0.00,,,0.00,weatherlink.com 1.10,2013-08-04 10:24:00,
2013-08-04 06:39:00,69.1,68.0,29.92,East,83,0.0,0.0,97,0.00,,,0.00,weatherlink.com 1.10,2013-08-04 10:39:00,
2013-08-04 06:54:00,69.1,68.0,29.92,East,83,0.0,0.0,97,0.00,,,0.00,weatherlink.com 1.10,2013-08-04 10:54:00,
2013-08-04 07:09:00,69.1,68.0,29.92,East,83,0.0,0.0,97,0.00,,,0.00,weatherlink.com 1.10,2013-08-04 11:09:00,
2013-08-04 07:24:00,69.3,69.0,29.92,East,83,0.0,0.0,97,0.00,,,0.00,weatherlink.com 1.10,2013-08-04 11:24:00,
2013-08-04 07:39:00,69.4,69.0,29.92,East,83,0.0,0.0,97,0.00,,,0.00,weatherlink.com 1.10,2013-08-04 11:39:00,
2013-08-04 07:54:00,69.9,69.0,29.92,East,83,0.0,0.0,97,0.00,,,0.00,weatherlink.com 1.10,2013-08-04 11:54:00,
2013-08-04 08:09:00,70.4,70.0,29.92,East,83,0.0,0.0,97,0.00,,,0.00,weatherlink.com 1.10,2013-08-04 12:09:00,
2013-08-04 08:24:00,70.9,70.0,29.92,East,83,0.0,0.0,96,0.00,,,0.00,weatherlink.com 1.10,2013-08-04 12:24:00,
2013-08-04 08:39:00,71.6,70.0,29.93,East,83,0.0,2.0,93,0.00,,,0.00,weatherlink.com 1.10,2013-08-04 12:39:00,
2013-08-04 08:54:00,72.7,69.0,29.93,NNE,29,0.0,2.0,89,0.00,,,0.00,weatherlink.com 1.10,2013-08-04 12:54:00,
2013-08-04 09:09:00,73.9,70.0,29.93,NE,38,0.0,0.0,87,0.00,,,0.00,weatherlink.com 1.10,2013-08-04 13:09:00,
2013-08-04 09:24:00,75.4,69.0,29.92,ENE,74,1.0,3.0,79,0.00,,,0.00,weatherlink.com 1.10,2013-08-04 13:24:00,
2013-08-04 09:39:00,77.9,69.0,29.92,West,268,0.0,2.0,74,0.00,,,0.00,weatherlink.com 1.10,2013-08-04 13:39:00,
2013-08-04 09:54:00,79.6,69.0,29.92,North,360,0.0,4.0,71,0.00,,,0.00,weatherlink.com 1.10,2013-08-04 13:54:00,
2013-08-04 10:09:00,80.1,69.0,29.92,ESE,107,1.0,3.0,69,0.00,,,0.00,weatherlink.com 1.10,2013-08-04 14:09:00,
2013-08-04 10:25:00,81.4,68.0,29.93,NNE,18,0.0,4.0,63,0.00,,,0.00,weatherlink.com 1.10,2013-08-04 14:25:00,
2013-08-04 10:40:00,81.6,68.0,29.93,NNW,341,2.0,5.0,64,0.00,,,0.00,weatherlink.com 1.10,2013-08-04 14:40:00,
2013-08-04 10:55:00,81.8,68.0,29.93,ENE,71,0.0,5.0,63,0.00,,,0.00,weatherlink.com 1.10,2013-08-04 14:55:00,
2013-08-04 11:10:00,82.2,67.0,29.94,WNW,282,1.0,5.0,61,0.00,,,0.00,weatherlink.com 1.10,2013-08-04 15:10:00,
2013-08-04 11:25:00,82.4,68.0,29.94,NE,42,2.0,5.0,61,0.00,,,0.00,weatherlink.com 1.10,2013-08-04 15:25:00,
2013-08-04 11:39:00,82.8,68.0,29.94,ESE,103,3.0,6.0,61,0.00,,,0.00,weatherlink.com 1.10,2013-08-04 15:39:00,
2013-08-04 11:55:00,83.4,67.0,29.95,NE,48,0.0,6.0,58,0.00,,,0.00,weatherlink.com 1.10,2013-08-04 15:55:00,
2013-08-04 12:10:00,83.6,67.0,29.95,NW,315,0.0,4.0,58,0.00,,,0.00,weatherlink.com 1.10,2013-08-04 16:10:00,
2013-08-04 12:24:00,82.6,67.0,29.95,WNW,296,0.0,3.0,59,0.00,,,0.00,weatherlink.com 1.10,2013-08-04 16:24:00,
2013-08-04 12:40:00,82.8,68.0,29.95,NE,40,1.0,5.0,61,0.00,,,0.00,weatherlink.com 1.10,2013-08-04 16:40:00,
2013-08-04 12:54:00,82.8,67.0,29.95,WSW,248,0.0,6.0,59,0.00,,,0.00,weatherlink.com 1.10,2013-08-04 16:54:00,
2013-08-04 13:09:00,82.6,67.0,29.94,WSW,238,0.0,5.0,59,0.00,,,0.00,weatherlink.com 1.10,2013-08-04 17:09:00,
2013-08-04 13:24:00,84.1,66.0,29.94,NE,53,2.0,5.0,55,0.00,,,0.00,weatherlink.com 1.10,2013-08-04 17:24:00,
2013-08-04 13:40:00,84.3,66.0,29.94,ESE,111,0.0,5.0,54,0.00,,,0.00,weatherlink.com 1.10,2013-08-04 17:40:00,
2013-08-04 13:55:00,83.6,66.0,29.95,East,96,0.0,2.0,55,0.00,,,0.00,weatherlink.com 1.10,2013-08-04 17:55:00,
2013-08-04 14:10:00,83.0,66.0,29.94,NNE,22,3.0,3.0,56,0.00,,,0.00,weatherlink.com 1.10,2013-08-04 18:10:00,
2013-08-04 14:25:00,84.1,66.0,29.93,ENE,74,0.0,7.0,54,0.00,,,0.00,weatherlink.com 1.10,2013-08-04 18:25:00,
2013-08-04 14:40:00,84.9,66.0,29.93,South,191,0.0,3.0,53,0.00,,,0.00,weatherlink.com 1.10,2013-08-04 18:40:00,
2013-08-04 14:55:00,85.1,66.0,29.93,NNW,333,1.0,3.0,53,0.00,,,0.00,weatherlink.com 1.10,2013-08-04 18:55:00,
2013-08-04 15:10:00,84.9,66.0,29.93,NE,51,0.0,3.0,54,0.00,,,0.00,weatherlink.com 1.10,2013-08-04 19:10:00,
2013-08-04 15:25:00,83.8,64.0,29.93,NE,49,0.0,2.0,51,0.00,,,0.00,weatherlink.com 1.10,2013-08-04 19:25:00,
2013-08-04 15:40:00,84.3,64.0,29.93,East,80,0.0,5.0,51,0.00,,,0.00,weatherlink.com 1.10,2013-08-04 19:40:00,
2013-08-04 15:55:00,84.9,66.0,29.93,SSE,157,0.0,2.0,54,0.00,,,0.00,weatherlink.com 1.10,2013-08-04 19:55:00,
2013-08-04 16:10:00,85.5,64.0,29.92,East,97,0.0,4.0,49,0.00,,,0.00,weatherlink.com 1.10,2013-08-04 20:10:00,
2013-08-04 16:25:00,85.1,64.0,29.92,East,97,0.0,4.0,50,0.00,,,0.00,weatherlink.com 1.10,2013-08-04 20:25:00,
2013-08-04 16:40:00,84.5,63.0,29.92,East,97,1.0,1.0,49,0.00,,,0.00,weatherlink.com 1.10,2013-08-04 20:40:00,
2013-08-04 16:55:00,84.3,64.0,29.92,WNW,294,1.0,3.0,50,0.00,,,0.00,weatherlink.com 1.10,2013-08-04 20:55:00,
2013-08-04 17:10:00,84.5,65.0,29.92,WNW,293,0.0,5.0,52,0.00,,,0.00,weatherlink.com 1.10,2013-08-04 21:10:00,
2013-08-04 17:25:00,84.7,64.0,29.92,ENE,65,0.0,1.0,50,0.00,,,0.00,weatherlink.com 1.10,2013-08-04 21:25:00,
2013-08-04 17:40:00,84.7,65.0,29.92,ENE,65,0.0,1.0,51,0.00,,,0.00,weatherlink.com 1.10,2013-08-04 21:40:00,
2013-08-04 17:55:00,84.5,65.0,29.93,SE,130,0.0,1.0,52,0.00,,,0.00,weatherlink.com 1.10,2013-08-04 21:55:00,
2013-08-04 18:10:00,84.0,65.0,29.93,East,92,0.0,2.0,53,0.00,,,0.00,weatherlink.com 1.10,2013-08-04 22:10:00,
2013-08-04 18:25:00,83.8,65.0,29.93,East,94,0.0,1.0,53,0.00,,,0.00,weatherlink.com 1.10,2013-08-04 22:25:00,
2013-08-04 18:40:00,83.2,65.0,29.92,East,94,0.0,0.0,54,0.00,,,0.00,weatherlink.com 1.10,2013-08-04 22:40:00,
2013-08-04 18:55:00,82.0,66.0,29.92,East,94,0.0,0.0,59,0.00,,,0.00,weatherlink.com 1.10,2013-08-04 22:55:00,
2013-08-04 19:10:00,80.7,66.0,29.92,East,94,0.0,0.0,62,0.00,,,0.00,weatherlink.com 1.10,2013-08-04 23:10:00,
2013-08-04 19:25:00,79.8,67.0,29.93,East,94,0.0,0.0,65,0.00,,,0.00,weatherlink.com 1.10,2013-08-04 23:25:00,
2013-08-04 19:40:00,78.8,67.0,29.93,East,94,0.0,0.0,68,0.00,,,0.00,weatherlink.com 1.10,2013-08-04 23:40:00,
2013-08-04 19:55:00,78.3,68.0,29.93,East,94,0.0,0.0,70,0.00,,,0.00,weatherlink.com 1.10,2013-08-04 23:55:00,
2013-08-04 20:10:00,77.4,68.0,29.94,East,94,0.0,0.0,72,0.00,,,0.00,weatherlink.com 1.10,2013-08-05 00:10:00,
2013-08-04 20:25:00,76.5,68.0,29.95,East,94,0.0,0.0,76,0.00,,,0.00,weatherlink.com 1.10,2013-08-05 00:25:00,
2013-08-04 20:40:00,75.4,68.0,29.95,East,94,0.0,0.0,77,0.00,,,0.00,weatherlink.com 1.10,2013-08-05 00:40:00,
2013-08-04 20:55:00,74.6,68.0,29.95,East,94,0.0,0.0,80,0.00,,,0.00,weatherlink.com 1.10,2013-08-05 00:55:00,
2013-08-04 21:10:00,73.7,68.0,29.95,East,94,0.0,0.0,81,0.00,,,0.00,weatherlink.com 1.10,2013-08-05 01:10:00,
2013-08-04 21:25:00,73.2,68.0,29.96,East,94,0.0,1.0,83,0.00,,,0.00,weatherlink.com 1.10,2013-08-05 01:25:00,
2013-08-04 21:40:00,72.5,68.0,29.96,East,94,0.0,0.0,85,0.00,,,0.00,weatherlink.com 1.10,2013-08-05 01:40:00,
2013-08-04 21:55:00,72.1,68.0,29.97,East,94,0.0,0.0,86,0.00,,,0.00,weatherlink.com 1.10,2013-08-05 01:55:00,
2013-08-04 22:10:00,71.6,68.0,29.97,East,94,0.0,0.0,87,0.00,,,0.00,weatherlink.com 1.10,2013-08-05 02:10:00,
2013-08-04 22:25:00,71.1,67.0,29.98,East,94,0.0,0.0,88,0.00,,,0.00,weatherlink.com 1.10,2013-08-05 02:25:00,
2013-08-04 22:40:00,70.6,67.0,29.98,East,94,0.0,0.0,89,0.00,,,0.00,weatherlink.com 1.10,2013-08-05 02:40:00,
2013-08-04 22:55:00,70.3,67.0,29.98,East,94,0.0,0.0,89,0.00,,,0.00,weatherlink.com 1.10,2013-08-05 02:55:00,
2013-08-04 23:10:00,69.9,67.0,29.98,East,94,0.0,0.0,90,0.00,,,0.00,weatherlink.com 1.10,2013-08-05 03:10:00,
2013-08-04 23:25:00,69.6,67.0,29.99,East,94,0.0,0.0,91,0.00,,,0.00,weatherlink.com 1.10,2013-08-05 03:25:00,
2013-08-04 23:40:00,69.3,67.0,29.99,East,94,0.0,0.0,91,0.00,,,0.00,weatherlink.com 1.10,2013-08-05 03:40:00,
2013-08-04 23:55:00,69.1,66.0,29.99,East,94,0.0,0.0,91,0.00,,,0.00,weatherlink.com 1.10,2013-08-05 03:55:00,